createdAt,value
2018-09-30T00:06:04.438Z,2.3
2018-09-30T00:20:46.781Z,999.9
2018-09-30T00:49:24.159Z,999.9
2018-09-30T00:50:19.248Z,841.3
2018-09-30T01:05:54.646Z,129.5
2018-09-30T01:20:36.966Z,4.8
2018-09-30T01:35:29.048Z,3.5
2018-09-30T01:48:17.703Z,3.5
2018-09-30T01:50:09.920Z,3.2
2018-09-30T02:05:55.640Z,2.7
2018-09-30T02:20:55.025Z,2.4
2018-09-30T02:35:37.352Z,2.4
2018-09-30T02:47:03.170Z,2.4
2018-09-30T02:51:01.269Z,2.4
2018-09-30T03:05:46.837Z,2.2
2018-09-30T03:20:30.776Z,2.3
2018-09-30T03:35:10.130Z,2.4
2018-09-30T03:45:53.854Z,2.4
2018-09-30T03:50:54.978Z,1.9
2018-09-30T04:05:50.931Z,2.2
2018-09-30T04:18:49.163Z,2.2
2018-09-30T04:20:46.383Z,2
2018-09-30T04:35:22.214Z,2.1
2018-09-30T04:50:59.907Z,2.2
2018-09-30T05:05:53.230Z,2
2018-09-30T05:20:34.717Z,2
2018-09-30T05:35:12.657Z,2.2
2018-09-30T05:50:46.757Z,2.1
2018-09-30T06:05:29.970Z,2.4
2018-09-30T06:20:25.228Z,3.4
2018-09-30T06:35:10.703Z,3.4
2018-09-30T06:50:51.894Z,3.6
2018-09-30T07:05:57.901Z,3.3
2018-09-30T07:20:45.629Z,3.6
2018-09-30T07:35:29.042Z,3.4
2018-09-30T07:50:03.684Z,3.3
2018-09-30T08:05:40.506Z,2.7
2018-09-30T08:08:29.857Z,2.7
2018-09-30T08:20:07.569Z,2.8
2018-09-30T08:35:34.301Z,2.5
2018-09-30T08:50:06.061Z,2.4
2018-09-30T09:07:29.720Z,2.4
2018-09-30T09:20:14.239Z,2.3
2018-09-30T09:36:41.237Z,2.4
2018-09-30T09:38:06.881Z,2.4
2018-09-30T09:50:43.775Z,2.5
2018-09-30T10:05:11.814Z,2.6
2018-09-30T10:20:17.884Z,2.8
2018-09-30T11:10:04.241Z,4.4
2018-09-30T11:25:18.549Z,3.2
2018-09-30T11:39:43.060Z,2.7
2018-09-30T11:55:07.646Z,2.8
2018-09-30T12:09:26.917Z,2.7
2018-09-30T12:24:44.879Z,2.3
2018-09-30T12:40:02.035Z,3.1
2018-09-30T12:55:18.572Z,2.5
2018-09-30T13:09:37.538Z,2.9
2018-09-30T13:24:51.721Z,3.1
2018-09-30T13:40:05.414Z,3.3
2018-09-30T13:55:16.979Z,4.8
2018-09-30T14:09:25.484Z,5.3
2018-09-30T14:24:41.762Z,5.1
2018-09-30T14:39:55.445Z,3.9
2018-09-30T14:55:14.109Z,4
2018-09-30T15:09:27.497Z,3
2018-09-30T15:24:38.272Z,160
2018-09-30T15:39:49.857Z,3.2
2018-09-30T15:54:30.675Z,3
2018-09-30T16:09:21.961Z,2.8
2018-09-30T16:24:27.830Z,2.6
2018-09-30T16:40:01.963Z,2.5
2018-09-30T16:54:40.151Z,2.8
2018-09-30T17:13:02.479Z,6.5
2018-09-30T17:25:05.553Z,3.4
2018-09-30T17:39:22.202Z,3.5
2018-09-30T17:54:34.682Z,3.7
2018-09-30T18:10:12.419Z,4.1
2018-09-30T18:24:21.962Z,3.5
2018-09-30T18:40:09.241Z,4.3
2018-09-30T18:54:29.357Z,4
2018-09-30T19:10:02.975Z,3.7
2018-09-30T19:24:34.873Z,4.6
2018-09-30T19:40:01.106Z,4
2018-09-30T19:55:24.753Z,4.2
2018-09-30T20:09:56.731Z,3.8
2018-09-30T20:25:32.059Z,3.6
2018-09-30T20:39:43.312Z,4.1
2018-09-30T20:55:23.539Z,3.8
2018-09-30T21:09:51.521Z,3.7
2018-09-30T21:25:10.180Z,3.5
2018-09-30T21:39:30.889Z,3.4
2018-09-30T21:54:45.260Z,3.3
2018-09-30T22:10:19.920Z,2.9
2018-09-30T22:24:43.925Z,2.7
2018-09-30T22:40:09.669Z,2.7
2018-09-30T22:55:18.671Z,2.7
2018-09-30T23:09:44.107Z,2.9
2018-09-30T23:25:14.233Z,2.7
2018-09-30T23:39:39.407Z,2.3
2018-09-30T23:54:57.956Z,2.4
